sensor_id;sensor_type;location;lat;lon;timestamp;P1;durP1;ratioP1;P2;durP2;ratioP2
41446;SDS011;27185;52.040;4.490;2022-12-19T00:01:32;38.65;;;20.67;;
41446;SDS011;27185;52.040;4.490;2022-12-19T00:04:20;42.97;;;23.10;;
41446;SDS011;27185;52.040;4.490;2022-12-19T00:07:05;38.58;;;22.52;;
41446;SDS011;27185;52.040;4.490;2022-12-19T00:09:51;38.75;;;21.30;;
41446;SDS011;27185;52.040;4.490;2022-12-19T00:12:37;39.30;;;21.60;;
41446;SDS011;27185;52.040;4.490;2022-12-19T00:15:22;46.40;;;25.58;;
41446;SDS011;27185;52.040;4.490;2022-12-19T00:18:08;39.58;;;20.92;;
41446;SDS011;27185;52.040;4.490;2022-12-19T00:21:01;40.38;;;19.98;;
41446;SDS011;27185;52.040;4.490;2022-12-19T00:23:48;42.80;;;22.95;;
41446;SDS011;27185;52.040;4.490;2022-12-19T00:26:35;33.78;;;19.85;;
41446;SDS011;27185;52.040;4.490;2022-12-19T00:29:20;33.08;;;19.55;;
41446;SDS011;27185;52.040;4.490;2022-12-19T00:32:06;38.78;;;20.25;;
41446;SDS011;27185;52.040;4.490;2022-12-19T00:34:52;33.75;;;19.80;;
41446;SDS011;27185;52.040;4.490;2022-12-19T00:37:37;38.30;;;21.88;;
41446;SDS011;27185;52.040;4.490;2022-12-19T00:40:23;36.63;;;21.10;;
41446;SDS011;27185;52.040;4.490;2022-12-19T00:43:08;34.97;;;21.00;;
41446;SDS011;27185;52.040;4.490;2022-12-19T00:45:54;34.83;;;19.85;;
41446;SDS011;27185;52.040;4.490;2022-12-19T00:48:40;42.28;;;22.15;;
41446;SDS011;27185;52.040;4.490;2022-12-19T00:51:27;39.72;;;21.40;;
41446;SDS011;27185;52.040;4.490;2022-12-19T00:54:17;34.67;;;20.27;;
41446;SDS011;27185;52.040;4.490;2022-12-19T00:57:05;36.47;;;21.58;;
41446;SDS011;27185;52.040;4.490;2022-12-19T00:59:51;33.33;;;20.33;;
41446;SDS011;27185;52.040;4.490;2022-12-19T01:02:36;36.35;;;19.40;;
41446;SDS011;27185;52.040;4.490;2022-12-19T01:05:22;40.10;;;22.50;;
41446;SDS011;27185;52.040;4.490;2022-12-19T01:08:07;38.72;;;22.02;;
41446;SDS011;27185;52.040;4.490;2022-12-19T01:11:02;42.78;;;23.13;;
41446;SDS011;27185;52.040;4.490;2022-12-19T01:13:48;36.17;;;19.58;;
41446;SDS011;27185;52.040;4.490;2022-12-19T01:16:34;36.42;;;20.85;;
41446;SDS011;27185;52.040;4.490;2022-12-19T01:19:19;32.05;;;19.50;;
41446;SDS011;27185;52.040;4.490;2022-12-19T01:22:05;37.50;;;20.88;;
41446;SDS011;27185;52.040;4.490;2022-12-19T01:24:51;44.00;;;24.52;;
41446;SDS011;27185;52.040;4.490;2022-12-19T01:27:36;39.78;;;21.35;;
41446;SDS011;27185;52.040;4.490;2022-12-19T01:30:22;43.55;;;21.67;;
41446;SDS011;27185;52.040;4.490;2022-12-19T01:33:11;48.03;;;24.70;;
41446;SDS011;27185;52.040;4.490;2022-12-19T01:35:59;39.03;;;20.70;;
41446;SDS011;27185;52.040;4.490;2022-12-19T01:38:53;35.63;;;20.45;;
41446;SDS011;27185;52.040;4.490;2022-12-19T01:41:40;36.45;;;21.15;;
41446;SDS011;27185;52.040;4.490;2022-12-19T01:44:25;42.60;;;22.40;;
41446;SDS011;27185;52.040;4.490;2022-12-19T01:47:11;35.92;;;19.63;;
41446;SDS011;27185;52.040;4.490;2022-12-19T01:49:57;37.85;;;20.40;;
41446;SDS011;27185;52.040;4.490;2022-12-19T01:52:45;49.15;;;26.65;;
41446;SDS011;27185;52.040;4.490;2022-12-19T01:55:31;44.33;;;22.88;;
41446;SDS011;27185;52.040;4.490;2022-12-19T01:58:18;34.80;;;20.85;;
41446;SDS011;27185;52.040;4.490;2022-12-19T02:01:04;43.08;;;22.90;;
41446;SDS011;27185;52.040;4.490;2022-12-19T02:03:49;31.98;;;19.92;;
41446;SDS011;27185;52.040;4.490;2022-12-19T02:06:37;36.10;;;21.35;;
41446;SDS011;27185;52.040;4.490;2022-12-19T02:09:25;37.92;;;23.52;;
41446;SDS011;27185;52.040;4.490;2022-12-19T02:12:11;40.08;;;20.92;;
41446;SDS011;27185;52.040;4.490;2022-12-19T02:14:57;37.97;;;21.27;;
41446;SDS011;27185;52.040;4.490;2022-12-19T02:36:15;33.40;;;19.20;;
41446;SDS011;27185;52.040;4.490;2022-12-19T02:39:06;30.13;;;17.73;;
41446;SDS011;27185;52.040;4.490;2022-12-19T02:41:56;29.27;;;18.45;;
41446;SDS011;27185;52.040;4.490;2022-12-19T02:44:44;26.42;;;17.13;;
41446;SDS011;27185;52.040;4.490;2022-12-19T02:47:33;31.95;;;16.63;;
41446;SDS011;27185;52.040;4.490;2022-12-19T02:50:20;27.73;;;18.08;;
41446;SDS011;27185;52.040;4.490;2022-12-19T02:53:07;27.95;;;16.63;;
41446;SDS011;27185;52.040;4.490;2022-12-19T03:02:46;22.10;;;14.05;;
41446;SDS011;27185;52.040;4.490;2022-12-19T03:05:42;21.80;;;13.90;;
41446;SDS011;27185;52.040;4.490;2022-12-19T03:08:37;21.95;;;14.88;;
41446;SDS011;27185;52.040;4.490;2022-12-19T03:11:33;22.75;;;14.75;;
41446;SDS011;27185;52.040;4.490;2022-12-19T03:14:20;24.40;;;15.52;;
41446;SDS011;27185;52.040;4.490;2022-12-19T03:17:07;22.23;;;14.57;;
41446;SDS011;27185;52.040;4.490;2022-12-19T03:19:53;23.10;;;14.52;;
41446;SDS011;27185;52.040;4.490;2022-12-19T03:22:40;21.80;;;14.15;;
41446;SDS011;27185;52.040;4.490;2022-12-19T03:25:27;23.50;;;15.65;;
41446;SDS011;27185;52.040;4.490;2022-12-19T03:28:25;20.45;;;14.65;;
41446;SDS011;27185;52.040;4.490;2022-12-19T03:31:26;20.35;;;13.57;;
41446;SDS011;27185;52.040;4.490;2022-12-19T03:34:30;16.80;;;12.55;;
41446;SDS011;27185;52.040;4.490;2022-12-19T03:37:30;20.45;;;13.88;;
41446;SDS011;27185;52.040;4.490;2022-12-19T03:40:19;16.90;;;12.40;;
41446;SDS011;27185;52.040;4.490;2022-12-19T03:43:07;18.77;;;13.10;;
41446;SDS011;27185;52.040;4.490;2022-12-19T03:48:54;17.98;;;13.70;;
41446;SDS011;27185;52.040;4.490;2022-12-19T03:51:45;17.58;;;13.00;;
41446;SDS011;27185;52.040;4.490;2022-12-19T03:54:39;16.00;;;11.75;;
41446;SDS011;27185;52.040;4.490;2022-12-19T03:57:33;18.80;;;13.88;;
41446;SDS011;27185;52.040;4.490;2022-12-19T04:00:26;16.48;;;12.38;;
41446;SDS011;27185;52.040;4.490;2022-12-19T04:03:15;18.67;;;12.55;;
41446;SDS011;27185;52.040;4.490;2022-12-19T04:06:02;19.17;;;14.35;;
41446;SDS011;27185;52.040;4.490;2022-12-19T04:08:49;18.70;;;14.60;;
41446;SDS011;27185;52.040;4.490;2022-12-19T04:11:39;18.20;;;13.98;;
41446;SDS011;27185;52.040;4.490;2022-12-19T04:14:30;15.73;;;11.93;;
41446;SDS011;27185;52.040;4.490;2022-12-19T04:17:33;16.17;;;12.18;;
41446;SDS011;27185;52.040;4.490;2022-12-19T04:20:27;18.58;;;13.95;;
41446;SDS011;27185;52.040;4.490;2022-12-19T04:23:16;22.58;;;15.55;;
41446;SDS011;27185;52.040;4.490;2022-12-19T04:26:06;16.17;;;12.30;;
41446;SDS011;27185;52.040;4.490;2022-12-19T04:28:55;15.00;;;11.38;;
41446;SDS011;27185;52.040;4.490;2022-12-19T04:31:45;16.20;;;12.63;;
41446;SDS011;27185;52.040;4.490;2022-12-19T04:34:32;14.38;;;10.50;;
41446;SDS011;27185;52.040;4.490;2022-12-19T04:37:18;12.85;;;9.90;;
41446;SDS011;27185;52.040;4.490;2022-12-19T04:40:04;13.60;;;10.80;;
41446;SDS011;27185;52.040;4.490;2022-12-19T04:42:50;12.68;;;10.15;;
41446;SDS011;27185;52.040;4.490;2022-12-19T04:45:35;13.00;;;9.95;;
41446;SDS011;27185;52.040;4.490;2022-12-19T04:48:21;13.35;;;9.40;;
41446;SDS011;27185;52.040;4.490;2022-12-19T04:51:07;14.48;;;9.55;;
41446;SDS011;27185;52.040;4.490;2022-12-19T04:53:52;12.98;;;9.63;;
41446;SDS011;27185;52.040;4.490;2022-12-19T04:56:38;16.23;;;11.50;;
41446;SDS011;27185;52.040;4.490;2022-12-19T04:59:23;13.98;;;10.45;;
41446;SDS011;27185;52.040;4.490;2022-12-19T05:02:10;16.02;;;10.35;;
41446;SDS011;27185;52.040;4.490;2022-12-19T05:04:55;16.27;;;10.82;;
41446;SDS011;27185;52.040;4.490;2022-12-19T05:07:41;15.73;;;10.93;;
41446;SDS011;27185;52.040;4.490;2022-12-19T05:10:26;14.98;;;10.25;;
41446;SDS011;27185;52.040;4.490;2022-12-19T05:13:12;15.40;;;10.77;;
41446;SDS011;27185;52.040;4.490;2022-12-19T05:15:58;14.02;;;10.50;;
41446;SDS011;27185;52.040;4.490;2022-12-19T05:18:45;22.38;;;13.13;;
41446;SDS011;27185;52.040;4.490;2022-12-19T05:21:31;22.30;;;13.10;;
41446;SDS011;27185;52.040;4.490;2022-12-19T05:24:16;22.42;;;13.55;;
41446;SDS011;27185;52.040;4.490;2022-12-19T05:29:50;16.77;;;11.25;;
41446;SDS011;27185;52.040;4.490;2022-12-19T05:32:36;18.30;;;13.27;;
41446;SDS011;27185;52.040;4.490;2022-12-19T05:35:21;18.73;;;13.38;;
41446;SDS011;27185;52.040;4.490;2022-12-19T05:38:07;21.08;;;12.98;;
41446;SDS011;27185;52.040;4.490;2022-12-19T05:40:53;19.05;;;13.65;;
41446;SDS011;27185;52.040;4.490;2022-12-19T05:43:38;20.25;;;14.00;;
41446;SDS011;27185;52.040;4.490;2022-12-19T05:46:24;20.48;;;13.65;;
41446;SDS011;27185;52.040;4.490;2022-12-19T05:49:11;19.55;;;13.25;;
41446;SDS011;27185;52.040;4.490;2022-12-19T05:51:56;20.88;;;13.43;;
41446;SDS011;27185;52.040;4.490;2022-12-19T05:54:42;20.38;;;13.68;;
41446;SDS011;27185;52.040;4.490;2022-12-19T05:57:27;23.23;;;13.85;;
41446;SDS011;27185;52.040;4.490;2022-12-19T06:00:13;21.33;;;13.80;;
41446;SDS011;27185;52.040;4.490;2022-12-19T06:03:00;21.02;;;14.20;;
41446;SDS011;27185;52.040;4.490;2022-12-19T06:05:45;21.25;;;13.20;;
41446;SDS011;27185;52.040;4.490;2022-12-19T06:08:31;21.42;;;14.23;;
41446;SDS011;27185;52.040;4.490;2022-12-19T06:11:17;20.42;;;13.38;;
41446;SDS011;27185;52.040;4.490;2022-12-19T06:14:06;22.08;;;13.98;;
41446;SDS011;27185;52.040;4.490;2022-12-19T06:16:51;17.92;;;12.93;;
41446;SDS011;27185;52.040;4.490;2022-12-19T06:19:37;17.58;;;12.50;;
41446;SDS011;27185;52.040;4.490;2022-12-19T06:22:22;17.33;;;12.18;;
41446;SDS011;27185;52.040;4.490;2022-12-19T06:25:08;15.90;;;11.55;;
41446;SDS011;27185;52.040;4.490;2022-12-19T06:27:54;16.00;;;12.32;;
41446;SDS011;27185;52.040;4.490;2022-12-19T06:30:39;17.55;;;12.60;;
41446;SDS011;27185;52.040;4.490;2022-12-19T06:33:25;21.55;;;13.10;;
41446;SDS011;27185;52.040;4.490;2022-12-19T06:36:15;23.92;;;14.30;;
41446;SDS011;27185;52.040;4.490;2022-12-19T06:39:04;18.42;;;12.43;;
41446;SDS011;27185;52.040;4.490;2022-12-19T06:41:50;18.88;;;12.48;;
41446;SDS011;27185;52.040;4.490;2022-12-19T06:44:54;20.08;;;12.45;;
41446;SDS011;27185;52.040;4.490;2022-12-19T06:47:40;17.65;;;11.18;;
41446;SDS011;27185;52.040;4.490;2022-12-19T06:50:25;15.88;;;11.10;;
41446;SDS011;27185;52.040;4.490;2022-12-19T06:53:11;17.50;;;11.32;;
41446;SDS011;27185;52.040;4.490;2022-12-19T06:55:57;16.88;;;11.10;;
41446;SDS011;27185;52.040;4.490;2022-12-19T06:58:43;17.85;;;10.73;;
41446;SDS011;27185;52.040;4.490;2022-12-19T07:04:42;15.68;;;10.38;;
41446;SDS011;27185;52.040;4.490;2022-12-19T07:07:32;14.02;;;9.55;;
41446;SDS011;27185;52.040;4.490;2022-12-19T07:10:18;13.65;;;9.93;;
41446;SDS011;27185;52.040;4.490;2022-12-19T07:13:04;17.45;;;9.02;;
41446;SDS011;27185;52.040;4.490;2022-12-19T07:15:50;13.65;;;9.48;;
41446;SDS011;27185;52.040;4.490;2022-12-19T07:18:37;13.27;;;9.95;;
41446;SDS011;27185;52.040;4.490;2022-12-19T07:21:24;22.05;;;10.20;;
41446;SDS011;27185;52.040;4.490;2022-12-19T07:24:10;16.10;;;9.30;;
41446;SDS011;27185;52.040;4.490;2022-12-19T07:29:44;15.65;;;10.38;;
41446;SDS011;27185;52.040;4.490;2022-12-19T07:32:29;12.82;;;9.35;;
41446;SDS011;27185;52.040;4.490;2022-12-19T07:35:15;12.93;;;9.20;;
41446;SDS011;27185;52.040;4.490;2022-12-19T07:38:01;12.40;;;8.35;;
41446;SDS011;27185;52.040;4.490;2022-12-19T07:40:48;11.30;;;8.32;;
41446;SDS011;27185;52.040;4.490;2022-12-19T07:43:34;11.88;;;9.30;;
41446;SDS011;27185;52.040;4.490;2022-12-19T07:46:19;13.40;;;8.38;;
41446;SDS011;27185;52.040;4.490;2022-12-19T07:49:05;13.40;;;8.95;;
41446;SDS011;27185;52.040;4.490;2022-12-19T07:51:51;14.05;;;8.70;;
41446;SDS011;27185;52.040;4.490;2022-12-19T07:54:39;11.70;;;8.25;;
41446;SDS011;27185;52.040;4.490;2022-12-19T07:57:25;12.23;;;8.73;;
41446;SDS011;27185;52.040;4.490;2022-12-19T08:00:11;14.25;;;8.45;;
41446;SDS011;27185;52.040;4.490;2022-12-19T08:02:57;16.85;;;9.10;;
41446;SDS011;27185;52.040;4.490;2022-12-19T08:05:43;16.55;;;9.60;;
41446;SDS011;27185;52.040;4.490;2022-12-19T08:08:29;11.93;;;8.45;;
41446;SDS011;27185;52.040;4.490;2022-12-19T08:11:17;11.38;;;8.25;;
41446;SDS011;27185;52.040;4.490;2022-12-19T08:14:11;12.93;;;7.80;;
41446;SDS011;27185;52.040;4.490;2022-12-19T08:16:56;14.13;;;8.85;;
41446;SDS011;27185;52.040;4.490;2022-12-19T08:19:42;13.13;;;8.10;;
41446;SDS011;27185;52.040;4.490;2022-12-19T08:22:28;14.95;;;8.85;;
41446;SDS011;27185;52.040;4.490;2022-12-19T08:25:15;12.40;;;8.25;;
41446;SDS011;27185;52.040;4.490;2022-12-19T08:28:00;12.10;;;8.25;;
41446;SDS011;27185;52.040;4.490;2022-12-19T08:30:46;11.02;;;8.52;;
41446;SDS011;27185;52.040;4.490;2022-12-19T08:33:32;10.80;;;7.43;;
41446;SDS011;27185;52.040;4.490;2022-12-19T08:36:17;17.15;;;9.05;;
41446;SDS011;27185;52.040;4.490;2022-12-19T08:39:04;13.32;;;7.97;;
41446;SDS011;27185;52.040;4.490;2022-12-19T08:41:49;15.57;;;7.97;;
41446;SDS011;27185;52.040;4.490;2022-12-19T08:44:35;13.75;;;8.13;;
41446;SDS011;27185;52.040;4.490;2022-12-19T08:47:20;10.90;;;8.10;;
41446;SDS011;27185;52.040;4.490;2022-12-19T08:50:06;11.75;;;7.57;;
41446;SDS011;27185;52.040;4.490;2022-12-19T08:52:52;11.30;;;7.55;;
41446;SDS011;27185;52.040;4.490;2022-12-19T08:55:37;13.25;;;8.25;;
41446;SDS011;27185;52.040;4.490;2022-12-19T08:58:24;11.75;;;7.18;;
41446;SDS011;27185;52.040;4.490;2022-12-19T09:01:15;12.43;;;7.22;;
41446;SDS011;27185;52.040;4.490;2022-12-19T09:04:03;10.63;;;7.95;;
41446;SDS011;27185;52.040;4.490;2022-12-19T09:06:49;10.75;;;7.15;;
41446;SDS011;27185;52.040;4.490;2022-12-19T09:09:35;11.73;;;7.68;;
41446;SDS011;27185;52.040;4.490;2022-12-19T09:12:20;13.93;;;7.57;;
41446;SDS011;27185;52.040;4.490;2022-12-19T09:15:06;10.93;;;6.60;;
41446;SDS011;27185;52.040;4.490;2022-12-19T09:17:52;9.40;;;6.70;;
41446;SDS011;27185;52.040;4.490;2022-12-19T09:20:37;10.45;;;7.47;;
41446;SDS011;27185;52.040;4.490;2022-12-19T09:23:23;11.90;;;6.88;;
41446;SDS011;27185;52.040;4.490;2022-12-19T09:26:11;9.18;;;6.68;;
41446;SDS011;27185;52.040;4.490;2022-12-19T09:28:57;12.18;;;6.25;;
41446;SDS011;27185;52.040;4.490;2022-12-19T09:31:44;12.90;;;6.82;;
41446;SDS011;27185;52.040;4.490;2022-12-19T09:34:29;10.07;;;6.60;;
41446;SDS011;27185;52.040;4.490;2022-12-19T09:37:15;9.57;;;6.68;;
41446;SDS011;27185;52.040;4.490;2022-12-19T09:40:00;10.65;;;7.05;;
41446;SDS011;27185;52.040;4.490;2022-12-19T09:46:38;10.13;;;7.20;;
41446;SDS011;27185;52.040;4.490;2022-12-19T09:49:01;10.90;;;7.68;;
41446;SDS011;27185;52.040;4.490;2022-12-19T09:51:50;8.40;;;6.40;;
41446;SDS011;27185;52.040;4.490;2022-12-19T09:57:56;12.00;;;6.70;;
41446;SDS011;27185;52.040;4.490;2022-12-19T10:01:01;13.45;;;6.50;;
41446;SDS011;27185;52.040;4.490;2022-12-19T10:04:02;9.93;;;5.90;;
41446;SDS011;27185;52.040;4.490;2022-12-19T10:06:54;8.23;;;5.95;;
41446;SDS011;27185;52.040;4.490;2022-12-19T10:09:40;8.10;;;5.80;;
41446;SDS011;27185;52.040;4.490;2022-12-19T10:12:35;9.68;;;5.70;;
41446;SDS011;27185;52.040;4.490;2022-12-19T10:15:51;8.90;;;5.47;;
41446;SDS011;27185;52.040;4.490;2022-12-19T10:18:53;7.88;;;5.57;;
41446;SDS011;27185;52.040;4.490;2022-12-19T10:21:52;10.30;;;6.63;;
41446;SDS011;27185;52.040;4.490;2022-12-19T10:27:43;10.45;;;6.03;;
41446;SDS011;27185;52.040;4.490;2022-12-19T10:34:12;10.98;;;6.10;;
41446;SDS011;27185;52.040;4.490;2022-12-19T10:37:00;6.50;;;4.97;;
41446;SDS011;27185;52.040;4.490;2022-12-19T10:39:55;11.80;;;6.10;;
41446;SDS011;27185;52.040;4.490;2022-12-19T10:42:50;8.50;;;6.07;;
41446;SDS011;27185;52.040;4.490;2022-12-19T10:45:44;10.57;;;6.03;;
41446;SDS011;27185;52.040;4.490;2022-12-19T10:48:33;12.40;;;6.15;;
41446;SDS011;27185;52.040;4.490;2022-12-19T10:51:23;7.00;;;5.03;;
41446;SDS011;27185;52.040;4.490;2022-12-19T10:54:11;7.25;;;5.05;;
41446;SDS011;27185;52.040;4.490;2022-12-19T10:57:03;7.88;;;5.07;;
41446;SDS011;27185;52.040;4.490;2022-12-19T11:00:05;8.43;;;5.10;;
41446;SDS011;27185;52.040;4.490;2022-12-19T11:03:11;9.63;;;5.63;;
41446;SDS011;27185;52.040;4.490;2022-12-19T11:05:59;10.13;;;5.32;;
41446;SDS011;27185;52.040;4.490;2022-12-19T11:08:46;9.00;;;5.72;;
41446;SDS011;27185;52.040;4.490;2022-12-19T11:11:33;6.93;;;4.88;;
41446;SDS011;27185;52.040;4.490;2022-12-19T11:14:20;8.17;;;5.07;;
41446;SDS011;27185;52.040;4.490;2022-12-19T11:20:25;8.80;;;5.18;;
41446;SDS011;27185;52.040;4.490;2022-12-19T11:23:11;8.30;;;4.70;;
41446;SDS011;27185;52.040;4.490;2022-12-19T11:28:46;11.93;;;5.73;;
41446;SDS011;27185;52.040;4.490;2022-12-19T11:31:33;11.65;;;6.05;;
41446;SDS011;27185;52.040;4.490;2022-12-19T11:34:21;9.07;;;5.72;;
41446;SDS011;27185;52.040;4.490;2022-12-19T11:37:15;7.13;;;5.40;;
41446;SDS011;27185;52.040;4.490;2022-12-19T11:40:25;9.80;;;5.78;;
41446;SDS011;27185;52.040;4.490;2022-12-19T11:46:47;8.13;;;5.68;;
41446;SDS011;27185;52.040;4.490;2022-12-19T11:49:43;8.45;;;6.22;;
41446;SDS011;27185;52.040;4.490;2022-12-19T11:52:37;10.27;;;6.55;;
41446;SDS011;27185;52.040;4.490;2022-12-19T11:55:27;10.13;;;6.22;;
41446;SDS011;27185;52.040;4.490;2022-12-19T11:58:24;25.13;;;16.10;;
41446;SDS011;27185;52.040;4.490;2022-12-19T12:04:45;7.47;;;5.75;;
41446;SDS011;27185;52.040;4.490;2022-12-19T12:07:37;8.68;;;6.15;;
41446;SDS011;27185;52.040;4.490;2022-12-19T12:10:23;9.77;;;6.30;;
41446;SDS011;27185;52.040;4.490;2022-12-19T12:16:10;12.30;;;5.75;;
41446;SDS011;27185;52.040;4.490;2022-12-19T12:19:13;10.45;;;5.53;;
41446;SDS011;27185;52.040;4.490;2022-12-19T12:22:17;9.88;;;5.82;;
41446;SDS011;27185;52.040;4.490;2022-12-19T12:37:46;8.05;;;4.63;;
41446;SDS011;27185;52.040;4.490;2022-12-19T12:43:56;7.22;;;4.40;;
41446;SDS011;27185;52.040;4.490;2022-12-19T12:47:27;7.90;;;4.28;;
41446;SDS011;27185;52.040;4.490;2022-12-19T12:50:11;8.75;;;4.65;;
41446;SDS011;27185;52.040;4.490;2022-12-19T12:53:01;5.90;;;4.25;;
41446;SDS011;27185;52.040;4.490;2022-12-19T12:55:54;6.55;;;4.35;;
41446;SDS011;27185;52.040;4.490;2022-12-19T13:01:38;6.50;;;4.18;;
41446;SDS011;27185;52.040;4.490;2022-12-19T13:04:34;5.10;;;3.17;;
41446;SDS011;27185;52.040;4.490;2022-12-19T13:07:28;8.43;;;3.45;;
41446;SDS011;27185;52.040;4.490;2022-12-19T13:10:21;5.72;;;3.70;;
41446;SDS011;27185;52.040;4.490;2022-12-19T13:13:08;6.50;;;3.92;;
41446;SDS011;27185;52.040;4.490;2022-12-19T13:15:58;6.95;;;3.85;;
41446;SDS011;27185;52.040;4.490;2022-12-19T13:19:02;7.95;;;4.07;;
41446;SDS011;27185;52.040;4.490;2022-12-19T13:24:56;7.35;;;3.80;;
41446;SDS011;27185;52.040;4.490;2022-12-19T13:27:45;7.13;;;4.03;;
41446;SDS011;27185;52.040;4.490;2022-12-19T13:30:32;7.70;;;4.63;;
41446;SDS011;27185;52.040;4.490;2022-12-19T13:33:18;7.03;;;4.18;;
41446;SDS011;27185;52.040;4.490;2022-12-19T13:36:03;9.45;;;4.88;;
41446;SDS011;27185;52.040;4.490;2022-12-19T13:39:20;6.43;;;4.30;;
41446;SDS011;27185;52.040;4.490;2022-12-19T13:42:15;7.32;;;4.32;;
41446;SDS011;27185;52.040;4.490;2022-12-19T13:45:24;5.97;;;4.28;;
41446;SDS011;27185;52.040;4.490;2022-12-19T13:48:17;8.02;;;3.70;;
41446;SDS011;27185;52.040;4.490;2022-12-19T13:51:25;6.97;;;4.10;;
41446;SDS011;27185;52.040;4.490;2022-12-19T13:54:17;7.32;;;3.78;;
41446;SDS011;27185;52.040;4.490;2022-12-19T13:57:22;7.28;;;4.30;;
41446;SDS011;27185;52.040;4.490;2022-12-19T14:00:16;5.93;;;4.30;;
41446;SDS011;27185;52.040;4.490;2022-12-19T14:03:04;9.20;;;3.33;;
41446;SDS011;27185;52.040;4.490;2022-12-19T14:12:22;6.70;;;3.97;;
41446;SDS011;27185;52.040;4.490;2022-12-19T14:15:43;6.95;;;3.38;;
41446;SDS011;27185;52.040;4.490;2022-12-19T14:18:30;8.90;;;3.30;;
41446;SDS011;27185;52.040;4.490;2022-12-19T14:21:18;9.15;;;3.30;;
41446;SDS011;27185;52.040;4.490;2022-12-19T14:24:27;7.15;;;3.47;;
41446;SDS011;27185;52.040;4.490;2022-12-19T14:27:13;5.63;;;2.95;;
41446;SDS011;27185;52.040;4.490;2022-12-19T14:30:02;5.05;;;3.25;;
41446;SDS011;27185;52.040;4.490;2022-12-19T14:32:51;6.15;;;3.58;;
41446;SDS011;27185;52.040;4.490;2022-12-19T14:35:41;5.80;;;2.95;;
41446;SDS011;27185;52.040;4.490;2022-12-19T14:38:31;4.50;;;2.63;;
41446;SDS011;27185;52.040;4.490;2022-12-19T14:44:46;7.82;;;2.75;;
41446;SDS011;27185;52.040;4.490;2022-12-19T14:47:39;5.50;;;3.17;;
41446;SDS011;27185;52.040;4.490;2022-12-19T14:50:30;7.22;;;2.90;;
41446;SDS011;27185;52.040;4.490;2022-12-19T14:56:03;4.78;;;2.92;;
41446;SDS011;27185;52.040;4.490;2022-12-19T14:58:53;7.00;;;3.03;;
41446;SDS011;27185;52.040;4.490;2022-12-19T15:01:41;4.55;;;2.45;;
41446;SDS011;27185;52.040;4.490;2022-12-19T15:04:30;5.55;;;2.42;;
41446;SDS011;27185;52.040;4.490;2022-12-19T15:07:24;5.43;;;2.60;;
41446;SDS011;27185;52.040;4.490;2022-12-19T15:10:14;5.35;;;2.97;;
41446;SDS011;27185;52.040;4.490;2022-12-19T15:13:20;5.10;;;2.55;;
41446;SDS011;27185;52.040;4.490;2022-12-19T15:16:22;6.90;;;3.45;;
41446;SDS011;27185;52.040;4.490;2022-12-19T15:19:11;4.35;;;2.75;;
41446;SDS011;27185;52.040;4.490;2022-12-19T15:21:57;4.35;;;2.58;;
41446;SDS011;27185;52.040;4.490;2022-12-19T15:24:43;5.50;;;2.65;;
41446;SDS011;27185;52.040;4.490;2022-12-19T15:27:28;5.10;;;2.90;;
41446;SDS011;27185;52.040;4.490;2022-12-19T15:30:16;6.05;;;3.00;;
41446;SDS011;27185;52.040;4.490;2022-12-19T15:33:08;8.82;;;3.25;;
41446;SDS011;27185;52.040;4.490;2022-12-19T15:35:59;5.20;;;3.10;;
41446;SDS011;27185;52.040;4.490;2022-12-19T15:38:45;6.10;;;3.55;;
41446;SDS011;27185;52.040;4.490;2022-12-19T15:41:31;6.68;;;3.13;;
41446;SDS011;27185;52.040;4.490;2022-12-19T15:44:21;6.35;;;2.80;;
41446;SDS011;27185;52.040;4.490;2022-12-19T15:47:17;7.15;;;2.83;;
41446;SDS011;27185;52.040;4.490;2022-12-19T15:53:04;6.47;;;2.63;;
41446;SDS011;27185;52.040;4.490;2022-12-19T15:56:22;9.32;;;3.08;;
41446;SDS011;27185;52.040;4.490;2022-12-19T15:59:21;6.60;;;2.53;;
41446;SDS011;27185;52.040;4.490;2022-12-19T16:02:13;7.68;;;2.67;;
41446;SDS011;27185;52.040;4.490;2022-12-19T16:05:01;5.88;;;3.10;;
41446;SDS011;27185;52.040;4.490;2022-12-19T16:07:47;6.22;;;3.38;;
41446;SDS011;27185;52.040;4.490;2022-12-19T16:10:33;8.20;;;2.90;;
41446;SDS011;27185;52.040;4.490;2022-12-19T16:13:20;8.25;;;3.20;;
41446;SDS011;27185;52.040;4.490;2022-12-19T16:16:08;4.80;;;3.08;;
41446;SDS011;27185;52.040;4.490;2022-12-19T16:18:54;6.35;;;3.00;;
41446;SDS011;27185;52.040;4.490;2022-12-19T16:21:40;6.30;;;3.03;;
41446;SDS011;27185;52.040;4.490;2022-12-19T16:24:25;6.47;;;3.10;;
41446;SDS011;27185;52.040;4.490;2022-12-19T16:27:24;5.68;;;3.60;;
41446;SDS011;27185;52.040;4.490;2022-12-19T16:30:27;6.25;;;3.17;;
41446;SDS011;27185;52.040;4.490;2022-12-19T16:33:18;11.52;;;3.33;;
41446;SDS011;27185;52.040;4.490;2022-12-19T16:36:07;6.38;;;3.03;;
41446;SDS011;27185;52.040;4.490;2022-12-19T16:38:53;5.90;;;2.90;;
41446;SDS011;27185;52.040;4.490;2022-12-19T16:41:39;5.35;;;2.72;;
41446;SDS011;27185;52.040;4.490;2022-12-19T16:44:25;7.38;;;3.13;;
41446;SDS011;27185;52.040;4.490;2022-12-19T16:47:15;7.28;;;3.22;;
41446;SDS011;27185;52.040;4.490;2022-12-19T16:50:06;6.53;;;3.45;;
41446;SDS011;27185;52.040;4.490;2022-12-19T16:53:00;5.43;;;3.03;;
41446;SDS011;27185;52.040;4.490;2022-12-19T16:55:45;5.82;;;3.00;;
41446;SDS011;27185;52.040;4.490;2022-12-19T16:58:32;6.38;;;3.00;;
41446;SDS011;27185;52.040;4.490;2022-12-19T17:01:18;6.63;;;2.95;;
41446;SDS011;27185;52.040;4.490;2022-12-19T17:04:04;4.60;;;3.00;;
41446;SDS011;27185;52.040;4.490;2022-12-19T17:06:50;7.07;;;2.90;;
41446;SDS011;27185;52.040;4.490;2022-12-19T17:09:37;4.85;;;2.88;;
41446;SDS011;27185;52.040;4.490;2022-12-19T17:12:22;6.93;;;3.05;;
41446;SDS011;27185;52.040;4.490;2022-12-19T17:15:17;9.57;;;3.40;;
41446;SDS011;27185;52.040;4.490;2022-12-19T17:18:28;6.55;;;2.97;;
41446;SDS011;27185;52.040;4.490;2022-12-19T17:24:09;5.53;;;3.13;;
41446;SDS011;27185;52.040;4.490;2022-12-19T17:26:57;5.93;;;2.78;;
41446;SDS011;27185;52.040;4.490;2022-12-19T17:29:43;8.02;;;3.20;;
41446;SDS011;27185;52.040;4.490;2022-12-19T17:32:31;8.45;;;3.90;;
41446;SDS011;27185;52.040;4.490;2022-12-19T17:35:19;8.50;;;3.20;;
41446;SDS011;27185;52.040;4.490;2022-12-19T17:38:14;7.63;;;3.15;;
41446;SDS011;27185;52.040;4.490;2022-12-19T17:41:01;5.85;;;3.17;;
41446;SDS011;27185;52.040;4.490;2022-12-19T17:43:46;7.47;;;3.58;;
41446;SDS011;27185;52.040;4.490;2022-12-19T17:46:32;9.13;;;3.67;;
41446;SDS011;27185;52.040;4.490;2022-12-19T17:49:28;6.57;;;3.20;;
41446;SDS011;27185;52.040;4.490;2022-12-19T17:52:15;6.38;;;3.30;;
41446;SDS011;27185;52.040;4.490;2022-12-19T17:55:13;9.48;;;3.80;;
41446;SDS011;27185;52.040;4.490;2022-12-19T17:58:03;7.55;;;3.90;;
41446;SDS011;27185;52.040;4.490;2022-12-19T18:00:48;6.68;;;3.58;;
41446;SDS011;27185;52.040;4.490;2022-12-19T18:03:35;8.90;;;3.80;;
41446;SDS011;27185;52.040;4.490;2022-12-19T18:06:21;10.88;;;5.07;;
41446;SDS011;27185;52.040;4.490;2022-12-19T18:09:22;8.65;;;4.20;;
41446;SDS011;27185;52.040;4.490;2022-12-19T18:12:08;10.57;;;4.65;;
41446;SDS011;27185;52.040;4.490;2022-12-19T18:14:54;9.32;;;4.82;;
41446;SDS011;27185;52.040;4.490;2022-12-19T18:17:40;8.55;;;4.50;;
41446;SDS011;27185;52.040;4.490;2022-12-19T18:20:28;7.50;;;3.38;;
41446;SDS011;27185;52.040;4.490;2022-12-19T18:23:17;8.15;;;4.53;;
41446;SDS011;27185;52.040;4.490;2022-12-19T18:26:04;9.80;;;5.25;;
41446;SDS011;27185;52.040;4.490;2022-12-19T18:28:49;10.80;;;5.10;;
41446;SDS011;27185;52.040;4.490;2022-12-19T18:31:35;6.88;;;3.58;;
41446;SDS011;27185;52.040;4.490;2022-12-19T18:34:22;9.05;;;3.83;;